sensor_id;sensor_type;location;lat;lon;timestamp;P1;durP1;ratioP1;P2;durP2;ratioP2
9508;SDS011;4792;50.088;8.122;2023-05-07T00:01:01;1.93;;;1.50;;
9508;SDS011;4792;50.088;8.122;2023-05-07T00:03:29;1.47;;;1.37;;
9508;SDS011;4792;50.088;8.122;2023-05-07T00:05:58;3.73;;;1.53;;
9508;SDS011;4792;50.088;8.122;2023-05-07T00:08:27;1.70;;;1.27;;
9508;SDS011;4792;50.088;8.122;2023-05-07T00:10:55;1.93;;;1.40;;
9508;SDS011;4792;50.088;8.122;2023-05-07T00:13:23;2.27;;;1.53;;
9508;SDS011;4792;50.088;8.122;2023-05-07T00:15:51;1.70;;;1.20;;
9508;SDS011;4792;50.088;8.122;2023-05-07T00:18:19;2.63;;;1.30;;
9508;SDS011;4792;50.088;8.122;2023-05-07T00:20:48;2.37;;;1.30;;
9508;SDS011;4792;50.088;8.122;2023-05-07T00:23:16;2.70;;;1.30;;
9508;SDS011;4792;50.088;8.122;2023-05-07T00:25:46;1.73;;;1.30;;
9508;SDS011;4792;50.088;8.122;2023-05-07T00:28:14;3.67;;;1.30;;
9508;SDS011;4792;50.088;8.122;2023-05-07T00:30:41;1.50;;;1.30;;
9508;SDS011;4792;50.088;8.122;2023-05-07T00:33:09;3.30;;;1.37;;
9508;SDS011;4792;50.088;8.122;2023-05-07T00:35:37;1.70;;;1.07;;
9508;SDS011;4792;50.088;8.122;2023-05-07T00:38:05;2.93;;;1.40;;
9508;SDS011;4792;50.088;8.122;2023-05-07T00:40:33;1.60;;;1.50;;
9508;SDS011;4792;50.088;8.122;2023-05-07T00:43:03;2.43;;;1.47;;
9508;SDS011;4792;50.088;8.122;2023-05-07T00:45:31;1.30;;;1.20;;
9508;SDS011;4792;50.088;8.122;2023-05-07T00:48:00;1.70;;;1.30;;
9508;SDS011;4792;50.088;8.122;2023-05-07T00:50:28;4.47;;;1.50;;
9508;SDS011;4792;50.088;8.122;2023-05-07T00:52:57;1.40;;;1.30;;
9508;SDS011;4792;50.088;8.122;2023-05-07T00:55:25;1.20;;;1.10;;
9508;SDS011;4792;50.088;8.122;2023-05-07T00:57:53;1.97;;;1.60;;
9508;SDS011;4792;50.088;8.122;2023-05-07T01:00:23;1.60;;;1.30;;
9508;SDS011;4792;50.088;8.122;2023-05-07T01:02:51;1.40;;;1.30;;
9508;SDS011;4792;50.088;8.122;2023-05-07T01:05:20;1.30;;;1.07;;
9508;SDS011;4792;50.088;8.122;2023-05-07T01:07:49;1.57;;;1.40;;
9508;SDS011;4792;50.088;8.122;2023-05-07T01:10:18;2.57;;;1.43;;
9508;SDS011;4792;50.088;8.122;2023-05-07T01:12:46;3.63;;;1.40;;
9508;SDS011;4792;50.088;8.122;2023-05-07T01:15:14;2.40;;;1.47;;
9508;SDS011;4792;50.088;8.122;2023-05-07T01:17:44;2.43;;;1.40;;
9508;SDS011;4792;50.088;8.122;2023-05-07T01:20:12;1.63;;;1.40;;
9508;SDS011;4792;50.088;8.122;2023-05-07T01:22:43;2.03;;;1.50;;
9508;SDS011;4792;50.088;8.122;2023-05-07T01:25:11;2.53;;;1.40;;
9508;SDS011;4792;50.088;8.122;2023-05-07T01:27:40;1.33;;;1.23;;
9508;SDS011;4792;50.088;8.122;2023-05-07T01:30:08;1.60;;;1.50;;
9508;SDS011;4792;50.088;8.122;2023-05-07T01:32:38;2.40;;;1.57;;
9508;SDS011;4792;50.088;8.122;2023-05-07T01:35:10;1.57;;;1.20;;
9508;SDS011;4792;50.088;8.122;2023-05-07T01:37:39;3.30;;;1.60;;
9508;SDS011;4792;50.088;8.122;2023-05-07T01:40:09;1.53;;;1.40;;
9508;SDS011;4792;50.088;8.122;2023-05-07T01:42:38;2.90;;;1.50;;
9508;SDS011;4792;50.088;8.122;2023-05-07T01:45:06;2.60;;;1.53;;
9508;SDS011;4792;50.088;8.122;2023-05-07T01:47:35;2.83;;;1.20;;
9508;SDS011;4792;50.088;8.122;2023-05-07T01:50:05;1.60;;;1.50;;
9508;SDS011;4792;50.088;8.122;2023-05-07T01:52:35;2.37;;;1.83;;
9508;SDS011;4792;50.088;8.122;2023-05-07T01:55:05;2.57;;;1.47;;
9508;SDS011;4792;50.088;8.122;2023-05-07T01:57:35;2.93;;;1.60;;
9508;SDS011;4792;50.088;8.122;2023-05-07T02:00:03;2.80;;;1.60;;
9508;SDS011;4792;50.088;8.122;2023-05-07T02:02:32;1.93;;;1.40;;
9508;SDS011;4792;50.088;8.122;2023-05-07T02:05:00;2.47;;;1.67;;
9508;SDS011;4792;50.088;8.122;2023-05-07T02:07:28;2.57;;;1.60;;
9508;SDS011;4792;50.088;8.122;2023-05-07T02:09:56;2.07;;;1.53;;
9508;SDS011;4792;50.088;8.122;2023-05-07T02:12:24;1.70;;;1.60;;
9508;SDS011;4792;50.088;8.122;2023-05-07T02:14:53;2.57;;;1.50;;
9508;SDS011;4792;50.088;8.122;2023-05-07T02:17:21;1.80;;;1.70;;
9508;SDS011;4792;50.088;8.122;2023-05-07T02:19:49;2.00;;;1.60;;
9508;SDS011;4792;50.088;8.122;2023-05-07T02:22:17;4.10;;;1.40;;
9508;SDS011;4792;50.088;8.122;2023-05-07T02:24:45;1.80;;;1.50;;
9508;SDS011;4792;50.088;8.122;2023-05-07T02:27:13;2.00;;;1.70;;
9508;SDS011;4792;50.088;8.122;2023-05-07T02:29:41;2.57;;;1.70;;
9508;SDS011;4792;50.088;8.122;2023-05-07T02:32:11;2.37;;;1.60;;
9508;SDS011;4792;50.088;8.122;2023-05-07T02:34:39;1.60;;;1.50;;
9508;SDS011;4792;50.088;8.122;2023-05-07T02:37:07;3.87;;;1.57;;
9508;SDS011;4792;50.088;8.122;2023-05-07T02:39:35;3.00;;;1.80;;
9508;SDS011;4792;50.088;8.122;2023-05-07T02:42:03;2.17;;;1.63;;
9508;SDS011;4792;50.088;8.122;2023-05-07T02:44:31;3.70;;;1.40;;
9508;SDS011;4792;50.088;8.122;2023-05-07T02:46:59;2.80;;;1.40;;
9508;SDS011;4792;50.088;8.122;2023-05-07T02:49:28;2.60;;;1.40;;
9508;SDS011;4792;50.088;8.122;2023-05-07T02:51:56;2.30;;;1.50;;
9508;SDS011;4792;50.088;8.122;2023-05-07T02:54:24;1.87;;;1.47;;
9508;SDS011;4792;50.088;8.122;2023-05-07T02:56:52;1.70;;;1.53;;
9508;SDS011;4792;50.088;8.122;2023-05-07T02:59:20;2.33;;;1.53;;
9508;SDS011;4792;50.088;8.122;2023-05-07T03:01:48;2.17;;;1.70;;
9508;SDS011;4792;50.088;8.122;2023-05-07T03:04:16;2.30;;;1.50;;
9508;SDS011;4792;50.088;8.122;2023-05-07T03:06:45;3.60;;;1.80;;
9508;SDS011;4792;50.088;8.122;2023-05-07T03:09:13;1.70;;;1.60;;
9508;SDS011;4792;50.088;8.122;2023-05-07T03:11:41;3.23;;;1.60;;
9508;SDS011;4792;50.088;8.122;2023-05-07T03:14:09;2.30;;;1.63;;
9508;SDS011;4792;50.088;8.122;2023-05-07T03:16:37;2.00;;;1.40;;
9508;SDS011;4792;50.088;8.122;2023-05-07T03:19:05;6.60;;;1.70;;
9508;SDS011;4792;50.088;8.122;2023-05-07T03:21:33;2.37;;;1.53;;
9508;SDS011;4792;50.088;8.122;2023-05-07T03:24:02;1.87;;;1.67;;
9508;SDS011;4792;50.088;8.122;2023-05-07T03:26:30;2.57;;;1.53;;
9508;SDS011;4792;50.088;8.122;2023-05-07T03:28:58;2.20;;;1.50;;
9508;SDS011;4792;50.088;8.122;2023-05-07T03:31:25;2.10;;;1.33;;
9508;SDS011;4792;50.088;8.122;2023-05-07T03:33:54;1.77;;;1.43;;
9508;SDS011;4792;50.088;8.122;2023-05-07T03:36:23;1.50;;;1.30;;
9508;SDS011;4792;50.088;8.122;2023-05-07T03:38:52;1.87;;;1.50;;
9508;SDS011;4792;50.088;8.122;2023-05-07T03:41:22;3.03;;;1.73;;
9508;SDS011;4792;50.088;8.122;2023-05-07T03:43:49;2.17;;;1.67;;
9508;SDS011;4792;50.088;8.122;2023-05-07T03:46:17;2.23;;;1.60;;
9508;SDS011;4792;50.088;8.122;2023-05-07T03:48:45;2.20;;;1.90;;
9508;SDS011;4792;50.088;8.122;2023-05-07T03:51:13;1.97;;;1.53;;
9508;SDS011;4792;50.088;8.122;2023-05-07T03:53:41;1.90;;;1.53;;
9508;SDS011;4792;50.088;8.122;2023-05-07T03:56:08;2.10;;;1.70;;
9508;SDS011;4792;50.088;8.122;2023-05-07T03:58:38;2.70;;;1.60;;
9508;SDS011;4792;50.088;8.122;2023-05-07T04:01:05;2.70;;;1.70;;
9508;SDS011;4792;50.088;8.122;2023-05-07T04:03:33;1.70;;;1.60;;
9508;SDS011;4792;50.088;8.122;2023-05-07T04:06:01;2.37;;;1.80;;
9508;SDS011;4792;50.088;8.122;2023-05-07T04:08:29;2.67;;;1.60;;
9508;SDS011;4792;50.088;8.122;2023-05-07T04:10:57;3.30;;;2.00;;
9508;SDS011;4792;50.088;8.122;2023-05-07T04:13:26;5.70;;;2.00;;
9508;SDS011;4792;50.088;8.122;2023-05-07T04:15:55;3.13;;;1.93;;
9508;SDS011;4792;50.088;8.122;2023-05-07T04:18:23;1.70;;;1.60;;
9508;SDS011;4792;50.088;8.122;2023-05-07T04:20:51;3.30;;;1.80;;
9508;SDS011;4792;50.088;8.122;2023-05-07T04:23:19;1.87;;;1.67;;
9508;SDS011;4792;50.088;8.122;2023-05-07T04:25:47;3.13;;;1.73;;
9508;SDS011;4792;50.088;8.122;2023-05-07T04:28:15;2.27;;;1.80;;
9508;SDS011;4792;50.088;8.122;2023-05-07T04:30:42;2.23;;;1.90;;
9508;SDS011;4792;50.088;8.122;2023-05-07T04:33:13;2.30;;;1.60;;
9508;SDS011;4792;50.088;8.122;2023-05-07T04:35:42;1.70;;;1.40;;
9508;SDS011;4792;50.088;8.122;2023-05-07T04:38:10;1.53;;;1.43;;
9508;SDS011;4792;50.088;8.122;2023-05-07T04:40:38;1.93;;;1.73;;
9508;SDS011;4792;50.088;8.122;2023-05-07T04:43:06;1.97;;;1.67;;
9508;SDS011;4792;50.088;8.122;2023-05-07T04:45:35;1.77;;;1.67;;
9508;SDS011;4792;50.088;8.122;2023-05-07T04:48:03;2.10;;;1.90;;
9508;SDS011;4792;50.088;8.122;2023-05-07T04:50:33;2.03;;;1.83;;
9508;SDS011;4792;50.088;8.122;2023-05-07T04:53:01;6.33;;;1.87;;
9508;SDS011;4792;50.088;8.122;2023-05-07T04:55:29;2.90;;;1.90;;
9508;SDS011;4792;50.088;8.122;2023-05-07T04:57:57;2.03;;;1.80;;
9508;SDS011;4792;50.088;8.122;2023-05-07T05:00:27;1.77;;;1.50;;
9508;SDS011;4792;50.088;8.122;2023-05-07T05:02:56;2.43;;;1.77;;
9508;SDS011;4792;50.088;8.122;2023-05-07T05:05:24;2.77;;;2.00;;
9508;SDS011;4792;50.088;8.122;2023-05-07T05:07:53;2.43;;;2.23;;
9508;SDS011;4792;50.088;8.122;2023-05-07T05:10:21;3.67;;;2.00;;
9508;SDS011;4792;50.088;8.122;2023-05-07T05:12:50;1.80;;;1.70;;
9508;SDS011;4792;50.088;8.122;2023-05-07T05:15:18;2.20;;;2.00;;
9508;SDS011;4792;50.088;8.122;2023-05-07T05:17:45;4.80;;;2.03;;
9508;SDS011;4792;50.088;8.122;2023-05-07T05:20:14;3.07;;;2.17;;
9508;SDS011;4792;50.088;8.122;2023-05-07T05:22:42;4.00;;;1.80;;
9508;SDS011;4792;50.088;8.122;2023-05-07T05:25:11;2.30;;;1.93;;
9508;SDS011;4792;50.088;8.122;2023-05-07T05:27:39;5.33;;;2.20;;
9508;SDS011;4792;50.088;8.122;2023-05-07T05:30:07;2.40;;;2.20;;
9508;SDS011;4792;50.088;8.122;2023-05-07T05:32:36;5.23;;;2.17;;
9508;SDS011;4792;50.088;8.122;2023-05-07T05:35:04;4.13;;;2.00;;
9508;SDS011;4792;50.088;8.122;2023-05-07T05:37:33;1.90;;;1.70;;
9508;SDS011;4792;50.088;8.122;2023-05-07T05:40:01;2.50;;;1.90;;
9508;SDS011;4792;50.088;8.122;2023-05-07T05:42:31;3.63;;;2.07;;
9508;SDS011;4792;50.088;8.122;2023-05-07T05:44:59;3.33;;;2.33;;
9508;SDS011;4792;50.088;8.122;2023-05-07T05:47:27;3.60;;;2.00;;
9508;SDS011;4792;50.088;8.122;2023-05-07T05:49:56;2.83;;;1.93;;
9508;SDS011;4792;50.088;8.122;2023-05-07T05:52:24;3.83;;;1.90;;
9508;SDS011;4792;50.088;8.122;2023-05-07T05:54:52;2.70;;;1.83;;
9508;SDS011;4792;50.088;8.122;2023-05-07T05:57:20;2.50;;;1.87;;
9508;SDS011;4792;50.088;8.122;2023-05-07T05:59:50;2.00;;;1.80;;
9508;SDS011;4792;50.088;8.122;2023-05-07T06:02:18;5.00;;;1.83;;
9508;SDS011;4792;50.088;8.122;2023-05-07T06:04:46;3.33;;;1.70;;
9508;SDS011;4792;50.088;8.122;2023-05-07T06:07:14;4.17;;;2.23;;
9508;SDS011;4792;50.088;8.122;2023-05-07T06:09:43;2.50;;;1.80;;
9508;SDS011;4792;50.088;8.122;2023-05-07T06:12:11;4.43;;;2.00;;
9508;SDS011;4792;50.088;8.122;2023-05-07T06:14:39;4.70;;;2.00;;
9508;SDS011;4792;50.088;8.122;2023-05-07T06:17:08;3.17;;;2.03;;
9508;SDS011;4792;50.088;8.122;2023-05-07T06:19:36;3.40;;;1.73;;
9508;SDS011;4792;50.088;8.122;2023-05-07T06:22:04;2.57;;;1.90;;
9508;SDS011;4792;50.088;8.122;2023-05-07T06:24:32;2.93;;;1.83;;
9508;SDS011;4792;50.088;8.122;2023-05-07T06:27:00;3.27;;;2.17;;
9508;SDS011;4792;50.088;8.122;2023-05-07T06:29:28;3.70;;;2.30;;
9508;SDS011;4792;50.088;8.122;2023-05-07T06:32:05;2.37;;;2.00;;
9508;SDS011;4792;50.088;8.122;2023-05-07T06:34:35;2.90;;;1.80;;
9508;SDS011;4792;50.088;8.122;2023-05-07T06:37:04;2.63;;;1.93;;
9508;SDS011;4792;50.088;8.122;2023-05-07T06:39:32;3.47;;;1.70;;
9508;SDS011;4792;50.088;8.122;2023-05-07T06:42:00;3.03;;;1.60;;
9508;SDS011;4792;50.088;8.122;2023-05-07T06:44:30;2.87;;;2.10;;
9508;SDS011;4792;50.088;8.122;2023-05-07T06:46:58;4.63;;;2.00;;
9508;SDS011;4792;50.088;8.122;2023-05-07T06:49:26;2.43;;;2.00;;
9508;SDS011;4792;50.088;8.122;2023-05-07T06:51:58;2.53;;;1.70;;
9508;SDS011;4792;50.088;8.122;2023-05-07T06:54:26;4.83;;;2.00;;
9508;SDS011;4792;50.088;8.122;2023-05-07T06:56:54;6.50;;;2.03;;
9508;SDS011;4792;50.088;8.122;2023-05-07T06:59:23;3.23;;;2.00;;
9508;SDS011;4792;50.088;8.122;2023-05-07T07:01:51;3.23;;;1.67;;
9508;SDS011;4792;50.088;8.122;2023-05-07T07:04:19;3.30;;;1.97;;
9508;SDS011;4792;50.088;8.122;2023-05-07T07:06:48;2.77;;;1.97;;
9508;SDS011;4792;50.088;8.122;2023-05-07T07:09:18;3.30;;;2.23;;
9508;SDS011;4792;50.088;8.122;2023-05-07T07:11:49;4.33;;;2.00;;
9508;SDS011;4792;50.088;8.122;2023-05-07T07:14:16;2.30;;;2.10;;
9508;SDS011;4792;50.088;8.122;2023-05-07T07:16:44;3.50;;;1.70;;
9508;SDS011;4792;50.088;8.122;2023-05-07T07:19:13;2.07;;;1.80;;
9508;SDS011;4792;50.088;8.122;2023-05-07T07:21:42;2.13;;;1.93;;
9508;SDS011;4792;50.088;8.122;2023-05-07T07:24:11;3.77;;;2.10;;
9508;SDS011;4792;50.088;8.122;2023-05-07T07:26:40;4.80;;;1.70;;
9508;SDS011;4792;50.088;8.122;2023-05-07T07:29:09;2.77;;;1.90;;
9508;SDS011;4792;50.088;8.122;2023-05-07T07:31:36;4.17;;;2.20;;
9508;SDS011;4792;50.088;8.122;2023-05-07T07:34:04;2.13;;;1.80;;
9508;SDS011;4792;50.088;8.122;2023-05-07T07:36:32;5.27;;;2.20;;
9508;SDS011;4792;50.088;8.122;2023-05-07T07:39:11;3.13;;;2.30;;
9508;SDS011;4792;50.088;8.122;2023-05-07T07:41:40;3.27;;;2.10;;
9508;SDS011;4792;50.088;8.122;2023-05-07T07:44:08;2.70;;;1.87;;
9508;SDS011;4792;50.088;8.122;2023-05-07T07:46:41;3.13;;;2.23;;
9508;SDS011;4792;50.088;8.122;2023-05-07T07:49:09;2.60;;;2.20;;
9508;SDS011;4792;50.088;8.122;2023-05-07T07:51:37;6.43;;;2.20;;
9508;SDS011;4792;50.088;8.122;2023-05-07T07:54:05;2.43;;;1.90;;
9508;SDS011;4792;50.088;8.122;2023-05-07T07:56:33;2.37;;;2.00;;
9508;SDS011;4792;50.088;8.122;2023-05-07T07:59:03;4.20;;;2.17;;
9508;SDS011;4792;50.088;8.122;2023-05-07T08:01:31;2.00;;;1.80;;
9508;SDS011;4792;50.088;8.122;2023-05-07T08:03:59;3.40;;;2.30;;
9508;SDS011;4792;50.088;8.122;2023-05-07T08:06:29;4.93;;;2.30;;
9508;SDS011;4792;50.088;8.122;2023-05-07T08:08:57;4.37;;;2.17;;
9508;SDS011;4792;50.088;8.122;2023-05-07T08:11:25;3.10;;;2.10;;
9508;SDS011;4792;50.088;8.122;2023-05-07T08:13:53;2.40;;;2.20;;
9508;SDS011;4792;50.088;8.122;2023-05-07T08:16:22;2.43;;;2.20;;
9508;SDS011;4792;50.088;8.122;2023-05-07T08:18:50;2.70;;;2.10;;
9508;SDS011;4792;50.088;8.122;2023-05-07T08:21:18;3.73;;;2.50;;
9508;SDS011;4792;50.088;8.122;2023-05-07T08:23:46;2.47;;;2.23;;
9508;SDS011;4792;50.088;8.122;2023-05-07T08:26:14;3.03;;;2.30;;
9508;SDS011;4792;50.088;8.122;2023-05-07T08:28:42;3.70;;;2.40;;
9508;SDS011;4792;50.088;8.122;2023-05-07T08:31:09;2.63;;;2.30;;
9508;SDS011;4792;50.088;8.122;2023-05-07T08:33:39;2.83;;;2.07;;
9508;SDS011;4792;50.088;8.122;2023-05-07T08:36:06;3.23;;;2.20;;
9508;SDS011;4792;50.088;8.122;2023-05-07T08:38:34;3.97;;;2.20;;
9508;SDS011;4792;50.088;8.122;2023-05-07T08:41:02;2.53;;;2.20;;
9508;SDS011;4792;50.088;8.122;2023-05-07T08:43:30;2.97;;;2.47;;
9508;SDS011;4792;50.088;8.122;2023-05-07T08:46:00;2.77;;;2.50;;
9508;SDS011;4792;50.088;8.122;2023-05-07T08:48:29;2.90;;;2.60;;
9508;SDS011;4792;50.088;8.122;2023-05-07T08:50:58;3.63;;;2.30;;
9508;SDS011;4792;50.088;8.122;2023-05-07T08:53:27;2.63;;;2.23;;
9508;SDS011;4792;50.088;8.122;2023-05-07T08:55:55;5.00;;;2.20;;
9508;SDS011;4792;50.088;8.122;2023-05-07T08:58:23;3.87;;;2.20;;
9508;SDS011;4792;50.088;8.122;2023-05-07T09:00:51;4.10;;;2.30;;
9508;SDS011;4792;50.088;8.122;2023-05-07T09:03:20;3.43;;;2.40;;
9508;SDS011;4792;50.088;8.122;2023-05-07T09:05:48;6.20;;;2.37;;
9508;SDS011;4792;50.088;8.122;2023-05-07T09:08:17;4.33;;;2.37;;
9508;SDS011;4792;50.088;8.122;2023-05-07T09:10:46;3.27;;;2.47;;
9508;SDS011;4792;50.088;8.122;2023-05-07T09:13:15;2.83;;;2.50;;
9508;SDS011;4792;50.088;8.122;2023-05-07T09:15:44;2.70;;;2.27;;
9508;SDS011;4792;50.088;8.122;2023-05-07T09:18:12;3.33;;;2.60;;
9508;SDS011;4792;50.088;8.122;2023-05-07T09:20:42;3.70;;;2.23;;
9508;SDS011;4792;50.088;8.122;2023-05-07T09:23:09;4.33;;;2.70;;
9508;SDS011;4792;50.088;8.122;2023-05-07T09:25:39;3.33;;;2.40;;
9508;SDS011;4792;50.088;8.122;2023-05-07T09:28:07;2.83;;;2.63;;
9508;SDS011;4792;50.088;8.122;2023-05-07T09:30:36;3.00;;;2.70;;
9508;SDS011;4792;50.088;8.122;2023-05-07T09:33:04;3.83;;;2.40;;
9508;SDS011;4792;50.088;8.122;2023-05-07T09:35:32;3.03;;;2.37;;
9508;SDS011;4792;50.088;8.122;2023-05-07T09:38:00;5.67;;;2.40;;
9508;SDS011;4792;50.088;8.122;2023-05-07T09:40:30;2.93;;;2.40;;
9508;SDS011;4792;50.088;8.122;2023-05-07T09:43:09;4.47;;;2.40;;
9508;SDS011;4792;50.088;8.122;2023-05-07T09:45:38;2.45;;;2.25;;
9508;SDS011;4792;50.088;8.122;2023-05-07T09:48:06;3.80;;;2.78;;
9508;SDS011;4792;50.088;8.122;2023-05-07T09:50:35;3.85;;;2.72;;
9508;SDS011;4792;50.088;8.122;2023-05-07T09:53:03;3.47;;;2.40;;
9508;SDS011;4792;50.088;8.122;2023-05-07T09:55:32;3.40;;;2.60;;
9508;SDS011;4792;50.088;8.122;2023-05-07T09:58:00;2.80;;;2.60;;
9508;SDS011;4792;50.088;8.122;2023-05-07T10:00:30;3.90;;;2.70;;
9508;SDS011;4792;50.088;8.122;2023-05-07T10:02:59;4.45;;;2.90;;
9508;SDS011;4792;50.088;8.122;2023-05-07T10:05:28;3.85;;;2.40;;
9508;SDS011;4792;50.088;8.122;2023-05-07T10:07:56;3.45;;;2.38;;
9508;SDS011;4792;50.088;8.122;2023-05-07T10:10:24;4.10;;;3.22;;
9508;SDS011;4792;50.088;8.122;2023-05-07T10:12:52;4.13;;;2.97;;
9508;SDS011;4792;50.088;8.122;2023-05-07T10:15:20;4.10;;;2.80;;
9508;SDS011;4792;50.088;8.122;2023-05-07T10:17:52;4.72;;;2.60;;
9508;SDS011;4792;50.088;8.122;2023-05-07T10:20:21;3.63;;;2.58;;
9508;SDS011;4792;50.088;8.122;2023-05-07T10:22:49;4.68;;;3.00;;
9508;SDS011;4792;50.088;8.122;2023-05-07T10:25:20;3.40;;;2.55;;
9508;SDS011;4792;50.088;8.122;2023-05-07T10:27:51;5.82;;;3.20;;
9508;SDS011;4792;50.088;8.122;2023-05-07T10:30:23;3.58;;;3.17;;
9508;SDS011;4792;50.088;8.122;2023-05-07T10:32:59;3.30;;;2.80;;
9508;SDS011;4792;50.088;8.122;2023-05-07T10:35:37;3.10;;;2.80;;
9508;SDS011;4792;50.088;8.122;2023-05-07T10:38:08;4.53;;;2.80;;
9508;SDS011;4792;50.088;8.122;2023-05-07T10:40:36;5.22;;;3.05;;
9508;SDS011;4792;50.088;8.122;2023-05-07T10:43:04;4.70;;;2.75;;
9508;SDS011;4792;50.088;8.122;2023-05-07T10:45:35;3.45;;;2.95;;
9508;SDS011;4792;50.088;8.122;2023-05-07T10:48:11;4.00;;;2.90;;
9508;SDS011;4792;50.088;8.122;2023-05-07T10:53:45;3.80;;;2.83;;
9508;SDS011;4792;50.088;8.122;2023-05-07T11:01:55;4.75;;;3.28;;
9508;SDS011;4792;50.088;8.122;2023-05-07T11:04:25;3.33;;;2.80;;
9508;SDS011;4792;50.088;8.122;2023-05-07T11:07:14;3.92;;;3.10;;
9508;SDS011;4792;50.088;8.122;2023-05-07T11:10:02;6.03;;;3.50;;
9508;SDS011;4792;50.088;8.122;2023-05-07T11:12:53;4.03;;;3.20;;
9508;SDS011;4792;50.088;8.122;2023-05-07T11:15:41;3.13;;;2.90;;
9508;SDS011;4792;50.088;8.122;2023-05-07T11:18:11;4.05;;;3.17;;
9508;SDS011;4792;50.088;8.122;2023-05-07T11:20:48;4.85;;;3.15;;
9508;SDS011;4792;50.088;8.122;2023-05-07T11:26:45;3.80;;;3.40;;
9508;SDS011;4792;50.088;8.122;2023-05-07T11:29:15;3.88;;;3.00;;
9508;SDS011;4792;50.088;8.122;2023-05-07T11:31:50;5.45;;;3.60;;
9508;SDS011;4792;50.088;8.122;2023-05-07T11:34:22;4.00;;;3.60;;
9508;SDS011;4792;50.088;8.122;2023-05-07T11:36:52;4.63;;;3.80;;
9508;SDS011;4792;50.088;8.122;2023-05-07T11:39:25;7.32;;;3.22;;
9508;SDS011;4792;50.088;8.122;2023-05-07T11:41:56;3.33;;;3.03;;
9508;SDS011;4792;50.088;8.122;2023-05-07T11:44:24;4.05;;;3.20;;
9508;SDS011;4792;50.088;8.122;2023-05-07T11:46:52;4.10;;;3.30;;
9508;SDS011;4792;50.088;8.122;2023-05-07T11:49:20;3.38;;;3.08;;
9508;SDS011;4792;50.088;8.122;2023-05-07T11:51:48;4.47;;;3.22;;
9508;SDS011;4792;50.088;8.122;2023-05-07T11:54:17;5.15;;;2.85;;
9508;SDS011;4792;50.088;8.122;2023-05-07T11:56:45;3.90;;;3.50;;
9508;SDS011;4792;50.088;8.122;2023-05-07T11:59:16;7.53;;;3.53;;
9508;SDS011;4792;50.088;8.122;2023-05-07T12:01:45;3.60;;;3.03;;
9508;SDS011;4792;50.088;8.122;2023-05-07T12:04:18;3.97;;;3.28;;
9508;SDS011;4792;50.088;8.122;2023-05-07T12:06:47;3.88;;;2.83;;
9508;SDS011;4792;50.088;8.122;2023-05-07T12:09:18;4.05;;;2.90;;
9508;SDS011;4792;50.088;8.122;2023-05-07T12:11:46;5.13;;;3.38;;
9508;SDS011;4792;50.088;8.122;2023-05-07T12:14:14;6.05;;;2.97;;
9508;SDS011;4792;50.088;8.122;2023-05-07T12:16:43;3.13;;;2.83;;
9508;SDS011;4792;50.088;8.122;2023-05-07T12:19:12;3.33;;;3.03;;
9508;SDS011;4792;50.088;8.122;2023-05-07T12:21:41;3.63;;;2.97;;
9508;SDS011;4792;50.088;8.122;2023-05-07T12:24:09;3.03;;;2.72;;
9508;SDS011;4792;50.088;8.122;2023-05-07T12:26:39;3.28;;;3.03;;
9508;SDS011;4792;50.088;8.122;2023-05-07T12:29:07;2.83;;;2.50;;
9508;SDS011;4792;50.088;8.122;2023-05-07T12:31:35;3.22;;;2.53;;
9508;SDS011;4792;50.088;8.122;2023-05-07T12:34:03;4.47;;;3.13;;
9508;SDS011;4792;50.088;8.122;2023-05-07T12:36:41;5.40;;;3.25;;
9508;SDS011;4792;50.088;8.122;2023-05-07T12:39:09;3.13;;;2.83;;
9508;SDS011;4792;50.088;8.122;2023-05-07T12:44:31;3.45;;;2.90;;
9508;SDS011;4792;50.088;8.122;2023-05-07T12:47:01;4.78;;;2.92;;
9508;SDS011;4792;50.088;8.122;2023-05-07T12:49:29;2.65;;;2.42;;
9508;SDS011;4792;50.088;8.122;2023-05-07T12:51:57;4.00;;;2.78;;
9508;SDS011;4792;50.088;8.122;2023-05-07T12:54:29;3.33;;;3.03;;
9508;SDS011;4792;50.088;8.122;2023-05-07T12:57:01;3.65;;;3.03;;
9508;SDS011;4792;50.088;8.122;2023-05-07T12:59:34;3.38;;;3.08;;
9508;SDS011;4792;50.088;8.122;2023-05-07T13:02:03;3.45;;;2.92;;
9508;SDS011;4792;50.088;8.122;2023-05-07T13:04:31;2.92;;;2.65;;
9508;SDS011;4792;50.088;8.122;2023-05-07T13:07:00;2.70;;;2.50;;
9508;SDS011;4792;50.088;8.122;2023-05-07T13:09:28;4.25;;;3.10;;
9508;SDS011;4792;50.088;8.122;2023-05-07T13:11:56;3.50;;;2.90;;
9508;SDS011;4792;50.088;8.122;2023-05-07T13:14:26;3.85;;;3.05;;
9508;SDS011;4792;50.088;8.122;2023-05-07T13:16:55;4.18;;;2.90;;
9508;SDS011;4792;50.088;8.122;2023-05-07T13:19:23;4.35;;;2.80;;
9508;SDS011;4792;50.088;8.122;2023-05-07T13:21:51;3.88;;;3.28;;
9508;SDS011;4792;50.088;8.122;2023-05-07T13:24:19;3.67;;;3.38;;
9508;SDS011;4792;50.088;8.122;2023-05-07T13:26:47;4.40;;;3.00;;
9508;SDS011;4792;50.088;8.122;2023-05-07T13:29:15;3.35;;;2.97;;
9508;SDS011;4792;50.088;8.122;2023-05-07T13:31:43;3.88;;;3.17;;
9508;SDS011;4792;50.088;8.122;2023-05-07T13:34:14;3.45;;;3.15;;
9508;SDS011;4792;50.088;8.122;2023-05-07T13:36:43;3.55;;;3.08;;
9508;SDS011;4792;50.088;8.122;2023-05-07T13:39:11;4.20;;;2.80;;
9508;SDS011;4792;50.088;8.122;2023-05-07T13:41:39;3.42;;;3.10;;
9508;SDS011;4792;50.088;8.122;2023-05-07T13:44:07;3.80;;;2.83;;
9508;SDS011;4792;50.088;8.122;2023-05-07T13:46:34;4.50;;;3.38;;
9508;SDS011;4792;50.088;8.122;2023-05-07T13:49:03;5.60;;;3.10;;
9508;SDS011;4792;50.088;8.122;2023-05-07T13:51:32;3.13;;;2.47;;
9508;SDS011;4792;50.088;8.122;2023-05-07T13:54:00;3.85;;;2.90;;
9508;SDS011;4792;50.088;8.122;2023-05-07T13:56:28;4.75;;;2.60;;
9508;SDS011;4792;50.088;8.122;2023-05-07T13:58:57;4.75;;;2.55;;
9508;SDS011;4792;50.088;8.122;2023-05-07T14:01:26;2.92;;;2.42;;
9508;SDS011;4792;50.088;8.122;2023-05-07T14:03:55;2.97;;;2.67;;
9508;SDS011;4792;50.088;8.122;2023-05-07T14:06:24;4.40;;;2.58;;
9508;SDS011;4792;50.088;8.122;2023-05-07T14:08:53;3.22;;;2.80;;
9508;SDS011;4792;50.088;8.122;2023-05-07T14:11:21;3.85;;;3.17;;
9508;SDS011;4792;50.088;8.122;2023-05-07T14:13:48;4.50;;;2.90;;
9508;SDS011;4792;50.088;8.122;2023-05-07T14:16:16;2.90;;;2.60;;
9508;SDS011;4792;50.088;8.122;2023-05-07T14:18:44;3.83;;;3.00;;
9508;SDS011;4792;50.088;8.122;2023-05-07T14:21:12;3.42;;;2.60;;
9508;SDS011;4792;50.088;8.122;2023-05-07T14:23:40;3.22;;;2.92;;
9508;SDS011;4792;50.088;8.122;2023-05-07T14:26:09;3.25;;;2.67;;
9508;SDS011;4792;50.088;8.122;2023-05-07T14:28:37;2.75;;;2.47;;
9508;SDS011;4792;50.088;8.122;2023-05-07T14:31:05;3.15;;;2.85;;
9508;SDS011;4792;50.088;8.122;2023-05-07T14:33:33;3.78;;;2.67;;
9508;SDS011;4792;50.088;8.122;2023-05-07T14:36:01;3.63;;;3.15;;
9508;SDS011;4792;50.088;8.122;2023-05-07T14:38:29;4.28;;;3.40;;
9508;SDS011;4792;50.088;8.122;2023-05-07T14:40:59;3.20;;;2.63;;
9508;SDS011;4792;50.088;8.122;2023-05-07T14:43:29;2.75;;;2.20;;
9508;SDS011;4792;50.088;8.122;2023-05-07T14:46:12;2.90;;;2.30;;
9508;SDS011;4792;50.088;8.122;2023-05-07T14:48:41;5.80;;;3.38;;
9508;SDS011;4792;50.088;8.122;2023-05-07T14:51:09;3.17;;;2.88;;
9508;SDS011;4792;50.088;8.122;2023-05-07T14:53:37;5.78;;;3.20;;
9508;SDS011;4792;50.088;8.122;2023-05-07T14:56:05;5.03;;;4.05;;
9508;SDS011;4792;50.088;8.122;2023-05-07T14:58:34;7.18;;;4.40;;
9508;SDS011;4792;50.088;8.122;2023-05-07T15:01:02;3.10;;;2.40;;
9508;SDS011;4792;50.088;8.122;2023-05-07T15:03:30;3.17;;;2.38;;
9508;SDS011;4792;50.088;8.122;2023-05-07T15:05:59;3.22;;;2.17;;
9508;SDS011;4792;50.088;8.122;2023-05-07T15:08:27;3.17;;;2.45;;
9508;SDS011;4792;50.088;8.122;2023-05-07T15:10:54;5.43;;;2.55;;
9508;SDS011;4792;50.088;8.122;2023-05-07T15:13:22;4.90;;;3.15;;
9508;SDS011;4792;50.088;8.122;2023-05-07T15:15:52;4.28;;;3.35;;
9508;SDS011;4792;50.088;8.122;2023-05-07T15:18:19;3.80;;;3.50;;
9508;SDS011;4792;50.088;8.122;2023-05-07T15:20:48;4.05;;;2.90;;
9508;SDS011;4792;50.088;8.122;2023-05-07T15:23:16;5.57;;;2.58;;
9508;SDS011;4792;50.088;8.122;2023-05-07T15:25:44;5.07;;;3.45;;
9508;SDS011;4792;50.088;8.122;2023-05-07T15:28:15;3.63;;;2.30;;
9508;SDS011;4792;50.088;8.122;2023-05-07T15:30:42;4.15;;;3.45;;
9508;SDS011;4792;50.088;8.122;2023-05-07T15:33:12;5.80;;;3.22;;
9508;SDS011;4792;50.088;8.122;2023-05-07T15:35:40;3.30;;;2.80;;
9508;SDS011;4792;50.088;8.122;2023-05-07T15:38:09;7.35;;;5.90;;
9508;SDS011;4792;50.088;8.122;2023-05-07T15:40:37;5.15;;;4.03;;